WXM80 ListenWXM80 Stop

You find our weather info also at:

UK Metoffice

WeatherCloud

Weather Underground

Northeastern Weather Network

AWEKAS

Citizen Weather Observer Program (CWOP)

HAMweather, WeatherForYou, PWS Weather


Weather Underground History page Text

Daily Summary for January 19, 2018 Units:  Both    English   Metric
« Previous Day
Next Day »
Daily Weekly Monthly Yearly Custom
  High: Low: Average:
Temperature: 36.2 °F /  2.3 °C 23.8 °F /  -4.6 °C 29.7 °F /  -1.3 °C
Dew Point: 23.8 °F /  -4.6 °C 16.8 °F /  -8.4 °C 20.3 °F /  -6.5 °C
Humidity: 77 % 54 % 68 %
Wind Speed: 8.3 mph /  13.4 km/h - 2.5 mph /  4 km/h
Wind Gust: 13.8 mph /  22.2 km/h - -
Wind:- - WSW
Pressure: 29.83 in /  1010 hPa 29.69 in /  1005.3 hPa -
Precipitation: 0.00 in /  0 mm    
Historical Graphs
 
 
Tabular Data for January 19, 2018
Time Temperature Dew Point Pressure Wind Wind Speed Wind Gust Humidity Rainfall Rate (Hourly)
00:01 24.8 °F /  -4 °C 18.0 °F /  -7.8 °C 29.80 in /  1009 hPa West 2.9 mph /  4.7 km/h 5.8 mph /  9.3 km/h 75 % 0.00 in /  0 mm
00:06 24.9 °F /  -3.9 °C 18.4 °F /  -7.6 °C 29.80 in /  1009 hPa WNW 2.7 mph /  4.3 km/h 8.1 mph /  13 km/h 76 % 0.00 in /  0 mm
00:11 25.0 °F /  -3.9 °C 18.5 °F /  -7.5 °C 29.80 in /  1009 hPa West 2.1 mph /  3.4 km/h 8.1 mph /  13 km/h 76 % 0.00 in /  0 mm
00:16 25.0 °F /  -3.9 °C 18.5 °F /  -7.5 °C 29.80 in /  1009 hPa NW 3.2 mph /  5.1 km/h 11.5 mph /  18.5 km/h 76 % 0.00 in /  0 mm
00:21 25.2 °F /  -3.8 °C 18.4 °F /  -7.6 °C 29.80 in /  1009 hPa West 3.5 mph /  5.6 km/h 6.9 mph /  11.1 km/h 75 % 0.00 in /  0 mm
00:26 25.2 °F /  -3.8 °C 18.4 °F /  -7.6 °C 29.80 in /  1009 hPa WNW 1.6 mph /  2.6 km/h 3.5 mph /  5.6 km/h 75 % 0.00 in /  0 mm
00:31 25.3 °F /  -3.7 °C 18.5 °F /  -7.5 °C 29.80 in /  1009 hPa WSW 2.6 mph /  4.2 km/h 6.9 mph /  11.1 km/h 75 % 0.00 in /  0 mm
00:36 25.3 °F /  -3.7 °C 18.5 °F /  -7.5 °C 29.79 in /  1008.7 hPa WNW 3.1 mph /  5 km/h 5.8 mph /  9.3 km/h 75 % 0.00 in /  0 mm
00:41 25.3 °F /  -3.7 °C 18.5 °F /  -7.5 °C 29.79 in /  1008.7 hPa West 2.5 mph /  4 km/h 4.0 mph /  6.4 km/h 75 % 0.00 in /  0 mm
00:46 25.3 °F /  -3.7 °C 18.2 °F /  -7.7 °C 29.79 in /  1008.7 hPa NW 3.8 mph /  6.1 km/h 7.0 mph /  11.3 km/h 74 % 0.00 in /  0 mm
00:51 25.3 °F /  -3.7 °C 18.2 °F /  -7.7 °C 29.78 in /  1008.4 hPa WNW 3.2 mph /  5.1 km/h 6.9 mph /  11.1 km/h 74 % 0.00 in /  0 mm
00:56 25.3 °F /  -3.7 °C 18.2 °F /  -7.7 °C 29.78 in /  1008.4 hPa West 4.0 mph /  6.4 km/h 6.9 mph /  11.1 km/h 74 % 0.00 in /  0 mm
01:01 25.3 °F /  -3.7 °C 18.5 °F /  -7.5 °C 29.78 in /  1008.4 hPa WSW 3.3 mph /  5.3 km/h 5.8 mph /  9.3 km/h 75 % 0.00 in /  0 mm
01:06 25.3 °F /  -3.7 °C 18.2 °F /  -7.7 °C 29.78 in /  1008.4 hPa WNW 3.3 mph /  5.3 km/h 5.8 mph /  9.3 km/h 74 % 0.00 in /  0 mm
01:11 25.3 °F /  -3.7 °C 18.2 °F /  -7.7 °C 29.78 in /  1008.4 hPa West 3.3 mph /  5.3 km/h 5.0 mph /  8 km/h 74 % 0.00 in /  0 mm
01:16 25.3 °F /  -3.7 °C 18.2 °F /  -7.7 °C 29.78 in /  1008.4 hPa WSW 3.1 mph /  5 km/h 6.9 mph /  11.1 km/h 74 % 0.00 in /  0 mm
01:21 25.3 °F /  -3.7 °C 18.2 °F /  -7.7 °C 29.78 in /  1008.4 hPa WSW 3.4 mph /  5.5 km/h 6.9 mph /  11.1 km/h 74 % 0.00 in /  0 mm
01:26 25.2 °F /  -3.8 °C 18.1 °F /  -7.7 °C 29.78 in /  1008.4 hPa WNW 0.9 mph /  1.4 km/h 3.5 mph /  5.6 km/h 74 % 0.00 in /  0 mm
01:32 25.2 °F /  -3.8 °C 18.1 °F /  -7.7 °C 29.78 in /  1008.4 hPa West 3.2 mph /  5.1 km/h 5.8 mph /  9.3 km/h 74 % 0.00 in /  0 mm
01:37 25.2 °F /  -3.8 °C 18.1 °F /  -7.7 °C 29.79 in /  1008.7 hPa WSW 5.0 mph /  8 km/h 9.2 mph /  14.8 km/h 74 % 0.00 in /  0 mm
01:42 25.2 °F /  -3.8 °C 18.1 °F /  -7.7 °C 29.79 in /  1008.7 hPa WNW 4.3 mph /  6.9 km/h 9.2 mph /  14.8 km/h 74 % 0.00 in /  0 mm
01:47 25.2 °F /  -3.8 °C 18.1 °F /  -7.7 °C 29.79 in /  1008.7 hPa WSW 2.7 mph /  4.3 km/h 6.9 mph /  11.1 km/h 74 % 0.00 in /  0 mm
01:52 25.3 °F /  -3.7 °C 18.2 °F /  -7.7 °C 29.79 in /  1008.7 hPa WSW 4.1 mph /  6.6 km/h 8.1 mph /  13 km/h 74 % 0.00 in /  0 mm
01:57 25.3 °F /  -3.7 °C 18.2 °F /  -7.7 °C 29.79 in /  1008.7 hPa WNW 4.3 mph /  6.9 km/h 6.9 mph /  11.1 km/h 74 % 0.00 in /  0 mm
02:02 25.3 °F /  -3.7 °C 18.2 °F /  -7.7 °C 29.79 in /  1008.7 hPa West 5.4 mph /  8.7 km/h 11.0 mph /  17.7 km/h 74 % 0.00 in /  0 mm
02:07 25.3 °F /  -3.7 °C 18.2 °F /  -7.7 °C 29.79 in /  1008.7 hPa WNW 3.3 mph /  5.3 km/h 8.1 mph /  13 km/h 74 % 0.00 in /  0 mm
02:12 25.4 °F /  -3.7 °C 17.9 °F /  -7.8 °C 29.79 in /  1008.7 hPa WSW 1.7 mph /  2.7 km/h 3.5 mph /  5.6 km/h 73 % 0.00 in /  0 mm
02:17 25.4 °F /  -3.7 °C 18.3 °F /  -7.6 °C 29.79 in /  1008.7 hPa WNW 4.7 mph /  7.6 km/h 8.1 mph /  13 km/h 74 % 0.00 in /  0 mm
02:22 25.4 °F /  -3.7 °C 17.9 °F /  -7.8 °C 29.79 in /  1008.7 hPa West 5.2 mph /  8.4 km/h 6.9 mph /  11.1 km/h 73 % 0.00 in /  0 mm
02:27 25.4 °F /  -3.7 °C 18.3 °F /  -7.6 °C 29.79 in /  1008.7 hPa WNW 2.6 mph /  4.2 km/h 6.9 mph /  11.1 km/h 74 % 0.00 in /  0 mm
02:32 25.3 °F /  -3.7 °C 18.2 °F /  -7.7 °C 29.79 in /  1008.7 hPa West 2.9 mph /  4.7 km/h 8.1 mph /  13 km/h 74 % 0.00 in /  0 mm
02:37 25.3 °F /  -3.7 °C 17.9 °F /  -7.8 °C 29.79 in /  1008.7 hPa WNW 3.7 mph /  6 km/h 8.0 mph /  12.9 km/h 73 % 0.00 in /  0 mm
02:42 25.3 °F /  -3.7 °C 18.2 °F /  -7.7 °C 29.79 in /  1008.7 hPa WNW 4.1 mph /  6.6 km/h 9.0 mph /  14.5 km/h 74 % 0.00 in /  0 mm
02:47 25.3 °F /  -3.7 °C 18.2 °F /  -7.7 °C 29.79 in /  1008.7 hPa West 4.3 mph /  6.9 km/h 5.8 mph /  9.3 km/h 74 % 0.00 in /  0 mm
02:52 25.4 °F /  -3.7 °C 18.3 °F /  -7.6 °C 29.79 in /  1008.7 hPa WNW 5.1 mph /  8.2 km/h 10.0 mph /  16.1 km/h 74 % 0.00 in /  0 mm
02:58 25.4 °F /  -3.7 °C 18.3 °F /  -7.6 °C 29.79 in /  1008.7 hPa NW 4.5 mph /  7.2 km/h 8.1 mph /  13 km/h 74 % 0.00 in /  0 mm
03:03 25.4 °F /  -3.7 °C 18.3 °F /  -7.6 °C 29.78 in /  1008.4 hPa WNW 4.8 mph /  7.7 km/h 6.9 mph /  11.1 km/h 74 % 0.00 in /  0 mm
03:08 25.4 °F /  -3.7 °C 18.3 °F /  -7.6 °C 29.78 in /  1008.4 hPa WNW 3.3 mph /  5.3 km/h 5.8 mph /  9.3 km/h 74 % 0.00 in /  0 mm
03:13 25.4 °F /  -3.7 °C 18.3 °F /  -7.6 °C 29.79 in /  1008.7 hPa WNW 4.0 mph /  6.4 km/h 5.8 mph /  9.3 km/h 74 % 0.00 in /  0 mm
03:18 25.5 °F /  -3.6 °C 18.4 °F /  -7.6 °C 29.78 in /  1008.4 hPa West 0.1 mph /  0.2 km/h 5.8 mph /  9.3 km/h 74 % 0.00 in /  0 mm
03:23 25.5 °F /  -3.6 °C 18.4 °F /  -7.6 °C 29.79 in /  1008.7 hPa West 3.5 mph /  5.6 km/h 8.1 mph /  13 km/h 74 % 0.00 in /  0 mm
03:28 25.5 °F /  -3.6 °C 18.7 °F /  -7.4 °C 29.79 in /  1008.7 hPa NW 4.0 mph /  6.4 km/h 7.0 mph /  11.3 km/h 75 % 0.00 in /  0 mm
03:33 25.5 °F /  -3.6 °C 18.4 °F /  -7.6 °C 29.79 in /  1008.7 hPa West 4.7 mph /  7.6 km/h 9.2 mph /  14.8 km/h 74 % 0.00 in /  0 mm
03:38 25.5 °F /  -3.6 °C 18.4 °F /  -7.6 °C 29.80 in /  1009 hPa WSW 3.5 mph /  5.6 km/h 6.9 mph /  11.1 km/h 74 % 0.00 in /  0 mm
03:43 25.5 °F /  -3.6 °C 18.4 °F /  -7.6 °C 29.80 in /  1009 hPa WNW 4.1 mph /  6.6 km/h 8.1 mph /  13 km/h 74 % 0.00 in /  0 mm
03:48 25.4 °F /  -3.7 °C 18.3 °F /  -7.6 °C 29.80 in /  1009 hPa West 2.6 mph /  4.2 km/h 4.6 mph /  7.4 km/h 74 % 0.00 in /  0 mm
03:53 25.4 °F /  -3.7 °C 18.6 °F /  -7.4 °C 29.80 in /  1009 hPa West 2.9 mph /  4.7 km/h 5.8 mph /  9.3 km/h 75 % 0.00 in /  0 mm
03:58 25.4 °F /  -3.7 °C 18.6 °F /  -7.4 °C 29.80 in /  1009 hPa WSW 5.7 mph /  9.2 km/h 11.5 mph /  18.5 km/h 75 % 0.00 in /  0 mm
04:03 25.4 °F /  -3.7 °C 18.3 °F /  -7.6 °C 29.80 in /  1009 hPa WSW 5.3 mph /  8.5 km/h 6.9 mph /  11.1 km/h 74 % 0.00 in /  0 mm
04:08 25.5 °F /  -3.6 °C 18.4 °F /  -7.6 °C 29.80 in /  1009 hPa NW 4.6 mph /  7.4 km/h 9.2 mph /  14.8 km/h 74 % 0.00 in /  0 mm
04:13 25.5 °F /  -3.6 °C 18.4 °F /  -7.6 °C 29.80 in /  1009 hPa West 4.2 mph /  6.8 km/h 6.9 mph /  11.1 km/h 74 % 0.00 in /  0 mm
04:18 25.5 °F /  -3.6 °C 18.4 °F /  -7.6 °C 29.80 in /  1009 hPa SW 3.3 mph /  5.3 km/h 9.2 mph /  14.8 km/h 74 % 0.00 in /  0 mm
04:23 25.6 °F /  -3.6 °C 18.1 °F /  -7.7 °C 29.80 in /  1009 hPa WSW 7.5 mph /  12.1 km/h 9.2 mph /  14.8 km/h 73 % 0.00 in /  0 mm
04:28 25.6 °F /  -3.6 °C 17.8 °F /  -7.9 °C 29.81 in /  1009.4 hPa West 4.1 mph /  6.6 km/h 5.8 mph /  9.3 km/h 72 % 0.00 in /  0 mm
04:33 25.7 °F /  -3.5 °C 17.6 °F /  -8 °C 29.81 in /  1009.4 hPa WSW 2.6 mph /  4.2 km/h 5.8 mph /  9.3 km/h 71 % 0.00 in /  0 mm
04:38 25.7 °F /  -3.5 °C 17.6 °F /  -8 °C 29.81 in /  1009.4 hPa West 2.3 mph /  3.7 km/h 6.0 mph /  9.7 km/h 71 % 0.00 in /  0 mm
04:43 25.7 °F /  -3.5 °C 17.6 °F /  -8 °C 29.80 in /  1009 hPa SW 4.5 mph /  7.2 km/h 5.8 mph /  9.3 km/h 71 % 0.00 in /  0 mm
04:48 25.6 °F /  -3.6 °C 17.5 °F /  -8.1 °C 29.80 in /  1009 hPa WSW 4.0 mph /  6.4 km/h 9.2 mph /  14.8 km/h 71 % 0.00 in /  0 mm
04:54 25.6 °F /  -3.6 °C 17.8 °F /  -7.9 °C 29.80 in /  1009 hPa WSW 5.1 mph /  8.2 km/h 11.5 mph /  18.5 km/h 72 % 0.00 in /  0 mm
04:59 25.6 °F /  -3.6 °C 17.8 °F /  -7.9 °C 29.80 in /  1009 hPa WSW 1.3 mph /  2.1 km/h 4.6 mph /  7.4 km/h 72 % 0.00 in /  0 mm
05:04 25.6 °F /  -3.6 °C 17.8 °F /  -7.9 °C 29.81 in /  1009.4 hPa WSW 2.2 mph /  3.5 km/h 5.8 mph /  9.3 km/h 72 % 0.00 in /  0 mm
05:09 25.5 °F /  -3.6 °C 18.0 °F /  -7.8 °C 29.81 in /  1009.4 hPa WSW 3.1 mph /  5 km/h 5.8 mph /  9.3 km/h 73 % 0.00 in /  0 mm
05:14 25.4 °F /  -3.7 °C 17.9 °F /  -7.8 °C 29.80 in /  1009 hPa SW 4.2 mph /  6.8 km/h 7.0 mph /  11.3 km/h 73 % 0.00 in /  0 mm
05:19 25.3 °F /  -3.7 °C 17.9 °F /  -7.8 °C 29.81 in /  1009.4 hPa SW 3.0 mph /  4.8 km/h 4.6 mph /  7.4 km/h 73 % 0.00 in /  0 mm
05:24 25.2 °F /  -3.8 °C 17.8 °F /  -7.9 °C 29.81 in /  1009.4 hPa SW 1.7 mph /  2.7 km/h 3.5 mph /  5.6 km/h 73 % 0.00 in /  0 mm
05:29 25.1 °F /  -3.8 °C 17.7 °F /  -7.9 °C 29.81 in /  1009.4 hPa SSW 2.7 mph /  4.3 km/h 3.5 mph /  5.6 km/h 73 % 0.00 in /  0 mm
05:34 24.9 °F /  -3.9 °C 17.5 °F /  -8.1 °C 29.81 in /  1009.4 hPa SW 2.9 mph /  4.7 km/h 4.0 mph /  6.4 km/h 73 % 0.00 in /  0 mm
05:39 24.8 °F /  -4 °C 17.4 °F /  -8.1 °C 29.80 in /  1009 hPa SW 0.2 mph /  0.3 km/h 1.2 mph /  1.9 km/h 73 % 0.00 in /  0 mm
05:42 24.8 °F /  -4 °C 17.4 °F /  -8.1 °C 29.81 in /  1009.4 hPa SW 1.0 mph /  1.6 km/h 2.3 mph /  3.7 km/h 73 % 0.00 in /  0 mm
05:47 24.7 °F /  -4.1 °C 17.3 °F /  -8.2 °C 29.80 in /  1009 hPa SW 1.0 mph /  1.6 km/h 3.5 mph /  5.6 km/h 73 % 0.00 in /  0 mm
05:52 24.5 °F /  -4.2 °C 17.1 °F /  -8.3 °C 29.81 in /  1009.4 hPa SW 0.8 mph /  1.3 km/h 3.5 mph /  5.6 km/h 73 % 0.00 in /  0 mm
05:57 24.3 °F /  -4.3 °C 16.9 °F /  -8.4 °C 29.80 in /  1009 hPa WSW 1.7 mph /  2.7 km/h 3.5 mph /  5.6 km/h 73 % 0.00 in /  0 mm
06:02 24.2 °F /  -4.3 °C 17.1 °F /  -8.3 °C 29.80 in /  1009 hPa WSW 3.6 mph /  5.8 km/h 5.8 mph /  9.3 km/h 74 % 0.00 in /  0 mm
06:07 24.1 °F /  -4.4 °C 17.0 °F /  -8.3 °C 29.81 in /  1009.4 hPa WSW 1.0 mph /  1.6 km/h 1.2 mph /  1.9 km/h 74 % 0.00 in /  0 mm
06:12 24.0 °F /  -4.4 °C 16.9 °F /  -8.4 °C 29.81 in /  1009.4 hPa WSW 1.0 mph /  1.6 km/h 1.2 mph /  1.9 km/h 74 % 0.00 in /  0 mm
06:17 23.9 °F /  -4.5 °C 16.8 °F /  -8.4 °C 29.80 in /  1009 hPa SW 2.5 mph /  4 km/h 3.5 mph /  5.6 km/h 74 % 0.00 in /  0 mm
06:22 23.9 °F /  -4.5 °C 17.1 °F /  -8.3 °C 29.80 in /  1009 hPa WSW 2.5 mph /  4 km/h 5.0 mph /  8 km/h 75 % 0.00 in /  0 mm
06:27 23.9 °F /  -4.5 °C 17.1 °F /  -8.3 °C 29.81 in /  1009.4 hPa WSW 0.4 mph /  0.6 km/h 3.5 mph /  5.6 km/h 75 % 0.00 in /  0 mm
06:32 23.9 °F /  -4.5 °C 17.1 °F /  -8.3 °C 29.81 in /  1009.4 hPa WSW 2.6 mph /  4.2 km/h 3.5 mph /  5.6 km/h 75 % 0.00 in /  0 mm
06:37 23.9 °F /  -4.5 °C 17.1 °F /  -8.3 °C 29.81 in /  1009.4 hPa Calm     75 % 0.00 in /  0 mm
06:42 23.9 °F /  -4.5 °C 17.1 °F /  -8.3 °C 29.81 in /  1009.4 hPa SW 2.6 mph /  4.2 km/h 4.6 mph /  7.4 km/h 75 % 0.00 in /  0 mm
06:47 23.9 °F /  -4.5 °C 17.1 °F /  -8.3 °C 29.80 in /  1009 hPa SW 1.0 mph /  1.6 km/h 3.5 mph /  5.6 km/h 75 % 0.00 in /  0 mm
06:52 23.9 °F /  -4.5 °C 17.1 °F /  -8.3 °C 29.81 in /  1009.4 hPa WSW 2.0 mph /  3.2 km/h 5.8 mph /  9.3 km/h 75 % 0.00 in /  0 mm
06:58 23.9 °F /  -4.5 °C 17.1 °F /  -8.3 °C 29.81 in /  1009.4 hPa WSW 1.4 mph /  2.3 km/h 2.3 mph /  3.7 km/h 75 % 0.00 in /  0 mm
07:03 23.9 °F /  -4.5 °C 17.1 °F /  -8.3 °C 29.81 in /  1009.4 hPa WSW 2.7 mph /  4.3 km/h 3.5 mph /  5.6 km/h 75 % 0.00 in /  0 mm
07:08 23.9 °F /  -4.5 °C 17.1 °F /  -8.3 °C 29.80 in /  1009 hPa SW 2.5 mph /  4 km/h 4.6 mph /  7.4 km/h 75 % 0.00 in /  0 mm
07:13 23.9 °F /  -4.5 °C 17.1 °F /  -8.3 °C 29.81 in /  1009.4 hPa SSW 0.5 mph /  0.8 km/h 3.0 mph /  4.8 km/h 75 % 0.00 in /  0 mm
07:18 23.8 °F /  -4.6 °C 17.0 °F /  -8.3 °C 29.81 in /  1009.4 hPa WSW 0.7 mph /  1.1 km/h 4.6 mph /  7.4 km/h 75 % 0.00 in /  0 mm
07:23 23.8 °F /  -4.6 °C 17.3 °F /  -8.2 °C 29.81 in /  1009.4 hPa SW 1.2 mph /  1.9 km/h 3.0 mph /  4.8 km/h 76 % 0.00 in /  0 mm
07:28 23.8 °F /  -4.6 °C 17.3 °F /  -8.2 °C 29.81 in /  1009.4 hPa WSW 1.1 mph /  1.8 km/h 3.5 mph /  5.6 km/h 76 % 0.00 in /  0 mm
07:33 23.8 °F /  -4.6 °C 17.3 °F /  -8.2 °C 29.81 in /  1009.4 hPa SW 1.6 mph /  2.6 km/h 3.5 mph /  5.6 km/h 76 % 0.00 in /  0 mm
07:38 23.8 °F /  -4.6 °C 17.3 °F /  -8.2 °C 29.81 in /  1009.4 hPa WSW 2.6 mph /  4.2 km/h 3.5 mph /  5.6 km/h 76 % 0.00 in /  0 mm
07:43 23.8 °F /  -4.6 °C 17.3 °F /  -8.2 °C 29.81 in /  1009.4 hPa SSW 2.4 mph /  3.9 km/h 4.0 mph /  6.4 km/h 76 % 0.00 in /  0 mm
07:48 23.9 °F /  -4.5 °C 17.4 °F /  -8.1 °C 29.81 in /  1009.4 hPa SW 1.0 mph /  1.6 km/h 3.5 mph /  5.6 km/h 76 % 0.00 in /  0 mm
07:53 23.9 °F /  -4.5 °C 17.4 °F /  -8.1 °C 29.81 in /  1009.4 hPa SW 2.0 mph /  3.2 km/h 2.3 mph /  3.7 km/h 76 % 0.00 in /  0 mm
07:58 24.0 °F /  -4.4 °C 17.5 °F /  -8.1 °C 29.81 in /  1009.4 hPa WSW 1.8 mph /  2.9 km/h 3.5 mph /  5.6 km/h 76 % 0.00 in /  0 mm
08:03 24.2 °F /  -4.3 °C 18.0 °F /  -7.8 °C 29.80 in /  1009 hPa WSW 1.5 mph /  2.4 km/h 3.5 mph /  5.6 km/h 77 % 0.00 in /  0 mm
08:08 24.4 °F /  -4.2 °C 17.9 °F /  -7.8 °C 29.81 in /  1009.4 hPa SW 1.9 mph /  3.1 km/h 3.5 mph /  5.6 km/h 76 % 0.00 in /  0 mm
08:13 24.6 °F /  -4.1 °C 18.1 °F /  -7.7 °C 29.81 in /  1009.4 hPa SW 0.6 mph /  1 km/h 3.5 mph /  5.6 km/h 76 % 0.00 in /  0 mm
08:18 24.8 °F /  -4 °C 18.3 °F /  -7.6 °C 29.82 in /  1009.7 hPa WSW 0.2 mph /  0.3 km/h 1.2 mph /  1.9 km/h 76 % 0.00 in /  0 mm
08:23 25.0 °F /  -3.9 °C 18.5 °F /  -7.5 °C 29.81 in /  1009.4 hPa WSW 0.9 mph /  1.4 km/h 1.2 mph /  1.9 km/h 76 % 0.00 in /  0 mm
08:29 25.2 °F /  -3.8 °C 18.7 °F /  -7.4 °C 29.82 in /  1009.7 hPa SW 1.6 mph /  2.6 km/h 3.5 mph /  5.6 km/h 76 % 0.00 in /  0 mm
08:34 25.4 °F /  -3.7 °C 18.9 °F /  -7.3 °C 29.82 in /  1009.7 hPa SW 2.5 mph /  4 km/h 3.0 mph /  4.8 km/h 76 % 0.00 in /  0 mm
08:39 25.7 °F /  -3.5 °C 18.9 °F /  -7.3 °C 29.82 in /  1009.7 hPa WSW 2.5 mph /  4 km/h 6.0 mph /  9.7 km/h 75 % 0.00 in /  0 mm
08:44 25.9 °F /  -3.4 °C 19.1 °F /  -7.2 °C 29.82 in /  1009.7 hPa SW 2.6 mph /  4.2 km/h 5.8 mph /  9.3 km/h 75 % 0.00 in /  0 mm
08:49 26.2 °F /  -3.2 °C 19.0 °F /  -7.2 °C 29.82 in /  1009.7 hPa WSW 2.6 mph /  4.2 km/h 3.5 mph /  5.6 km/h 74 % 0.00 in /  0 mm
08:54 26.4 °F /  -3.1 °C 19.2 °F /  -7.1 °C 29.82 in /  1009.7 hPa Calm   3.5 mph /  5.6 km/h 74 % 0.00 in /  0 mm
08:59 26.6 °F /  -3 °C 19.4 °F /  -7 °C 29.82 in /  1009.7 hPa WSW 1.3 mph /  2.1 km/h 3.5 mph /  5.6 km/h 74 % 0.00 in /  0 mm
09:04 27.0 °F /  -2.8 °C 19.5 °F /  -6.9 °C 29.82 in /  1009.7 hPa Calm   1.2 mph /  1.9 km/h 73 % 0.00 in /  0 mm
09:09 27.4 °F /  -2.6 °C 19.9 °F /  -6.7 °C 29.82 in /  1009.7 hPa SSW 0.6 mph /  1 km/h 2.3 mph /  3.7 km/h 73 % 0.00 in /  0 mm
09:14 27.8 °F /  -2.3 °C 19.9 °F /  -6.7 °C 29.82 in /  1009.7 hPa SSW 1.3 mph /  2.1 km/h 3.5 mph /  5.6 km/h 72 % 0.00 in /  0 mm
09:19 28.2 °F /  -2.1 °C 20.3 °F /  -6.5 °C 29.82 in /  1009.7 hPa SW 1.5 mph /  2.4 km/h 5.0 mph /  8 km/h 72 % 0.00 in /  0 mm
09:24 28.9 °F /  -1.7 °C 20.7 °F /  -6.3 °C 29.82 in /  1009.7 hPa West 4.3 mph /  6.9 km/h 6.9 mph /  11.1 km/h 71 % 0.00 in /  0 mm
09:29 29.5 °F /  -1.4 °C 20.9 °F /  -6.2 °C 29.82 in /  1009.7 hPa SW 5.5 mph /  8.9 km/h 9.2 mph /  14.8 km/h 70 % 0.00 in /  0 mm
09:34 30.1 °F /  -1.1 °C 21.2 °F /  -6 °C 29.83 in /  1010 hPa WSW 4.2 mph /  6.8 km/h 9.0 mph /  14.5 km/h 69 % 0.00 in /  0 mm
09:39 30.6 °F /  -0.8 °C 21.3 °F /  -5.9 °C 29.82 in /  1009.7 hPa WSW 5.6 mph /  9 km/h 8.1 mph /  13 km/h 68 % 0.00 in /  0 mm
09:44 31.2 °F /  -0.4 °C 21.5 °F /  -5.8 °C 29.82 in /  1009.7 hPa SW 4.6 mph /  7.4 km/h 11.5 mph /  18.5 km/h 67 % 0.00 in /  0 mm
09:49 31.6 °F /  -0.2 °C 21.2 °F /  -6 °C 29.83 in /  1010 hPa WSW 8.1 mph /  13 km/h 12.0 mph /  19.3 km/h 65 % 0.00 in /  0 mm
09:54 31.9 °F /  -0.1 °C 21.1 °F /  -6.1 °C 29.82 in /  1009.7 hPa SW 6.3 mph /  10.1 km/h 12.0 mph /  19.3 km/h 64 % 0.00 in /  0 mm
09:59 32.1 °F /  0.1 °C 20.9 °F /  -6.2 °C 29.83 in /  1010 hPa WSW 5.7 mph /  9.2 km/h 7.0 mph /  11.3 km/h 63 % 0.00 in /  0 mm
10:04 32.4 °F /  0.2 °C 21.2 °F /  -6 °C 29.82 in /  1009.7 hPa West 4.8 mph /  7.7 km/h 7.0 mph /  11.3 km/h 63 % 0.00 in /  0 mm
10:10 32.5 °F /  0.3 °C 20.9 °F /  -6.2 °C 29.83 in /  1010 hPa WSW 4.4 mph /  7.1 km/h 5.8 mph /  9.3 km/h 62 % 0.00 in /  0 mm
10:15 32.7 °F /  0.4 °C 21.1 °F /  -6.1 °C 29.83 in /  1010 hPa WSW 4.9 mph /  7.9 km/h 10.4 mph /  16.7 km/h 62 % 0.00 in /  0 mm
10:20 32.8 °F /  0.4 °C 20.8 °F /  -6.2 °C 29.83 in /  1010 hPa SW 3.3 mph /  5.3 km/h 9.2 mph /  14.8 km/h 61 % 0.00 in /  0 mm
10:25 33.0 °F /  0.6 °C 21.0 °F /  -6.1 °C 29.82 in /  1009.7 hPa SW 3.4 mph /  5.5 km/h 11.5 mph /  18.5 km/h 61 % 0.00 in /  0 mm
10:30 33.1 °F /  0.6 °C 20.7 °F /  -6.3 °C 29.82 in /  1009.7 hPa WSW 6.5 mph /  10.5 km/h 11.5 mph /  18.5 km/h 60 % 0.00 in /  0 mm
10:35 33.2 °F /  0.7 °C 20.4 °F /  -6.4 °C 29.82 in /  1009.7 hPa WSW 6.2 mph /  10 km/h 9.2 mph /  14.8 km/h 59 % 0.00 in /  0 mm
10:40 33.3 °F /  0.7 °C 20.1 °F /  -6.6 °C 29.82 in /  1009.7 hPa WSW 2.5 mph /  4 km/h 11.5 mph /  18.5 km/h 58 % 0.00 in /  0 mm
10:45 33.5 °F /  0.8 °C 20.7 °F /  -6.3 °C 29.82 in /  1009.7 hPa West 4.1 mph /  6.6 km/h 11.5 mph /  18.5 km/h 59 % 0.00 in /  0 mm
10:50 33.6 °F /  0.9 °C 20.4 °F /  -6.4 °C 29.82 in /  1009.7 hPa West 4.3 mph /  6.9 km/h 10.4 mph /  16.7 km/h 58 % 0.00 in /  0 mm
10:55 33.6 °F /  0.9 °C 20.4 °F /  -6.4 °C 29.81 in /  1009.4 hPa SW 8.3 mph /  13.4 km/h 13.8 mph /  22.2 km/h 58 % 0.00 in /  0 mm
11:00 33.6 °F /  0.9 °C 20.4 °F /  -6.4 °C 29.81 in /  1009.4 hPa WSW 6.7 mph /  10.8 km/h 11.5 mph /  18.5 km/h 58 % 0.00 in /  0 mm
11:05 33.6 °F /  0.9 °C 20.4 °F /  -6.4 °C 29.81 in /  1009.4 hPa WNW 6.7 mph /  10.8 km/h 12.7 mph /  20.4 km/h 58 % 0.00 in /  0 mm
11:10 33.7 °F /  0.9 °C 20.5 °F /  -6.4 °C 29.81 in /  1009.4 hPa WSW 5.7 mph /  9.2 km/h 8.1 mph /  13 km/h 58 % 0.00 in /  0 mm
11:15 33.7 °F /  0.9 °C 20.5 °F /  -6.4 °C 29.80 in /  1009 hPa WSW 5.2 mph /  8.4 km/h 11.5 mph /  18.5 km/h 58 % 0.00 in /  0 mm
11:20 33.8 °F /  1 °C 20.6 °F /  -6.3 °C 29.80 in /  1009 hPa West 7.3 mph /  11.7 km/h 12.7 mph /  20.4 km/h 58 % 0.00 in /  0 mm
11:25 33.9 °F /  1.1 °C 20.7 °F /  -6.3 °C 29.79 in /  1008.7 hPa SSW 3.7 mph /  6 km/h 7.0 mph /  11.3 km/h 58 % 0.00 in /  0 mm
11:30 34.0 °F /  1.1 °C 20.3 °F /  -6.5 °C 29.79 in /  1008.7 hPa SW 6.6 mph /  10.6 km/h 8.1 mph /  13 km/h 57 % 0.00 in /  0 mm
11:35 34.0 °F /  1.1 °C 20.3 °F /  -6.5 °C 29.79 in /  1008.7 hPa WSW 7.0 mph /  11.3 km/h 9.2 mph /  14.8 km/h 57 % 0.00 in /  0 mm
11:41 34.0 °F /  1.1 °C 20.3 °F /  -6.5 °C 29.79 in /  1008.7 hPa NW 2.5 mph /  4 km/h 10.0 mph /  16.1 km/h 57 % 0.00 in /  0 mm
11:46 34.0 °F /  1.1 °C 20.8 °F /  -6.2 °C 29.79 in /  1008.7 hPa West 2.0 mph /  3.2 km/h 8.0 mph /  12.9 km/h 58 % 0.00 in /  0 mm
11:51 34.0 °F /  1.1 °C 20.3 °F /  -6.5 °C 29.79 in /  1008.7 hPa West 6.0 mph /  9.7 km/h 12.0 mph /  19.3 km/h 57 % 0.00 in /  0 mm
11:56 34.0 °F /  1.1 °C 20.3 °F /  -6.5 °C 29.79 in /  1008.7 hPa West 3.0 mph /  4.8 km/h 9.0 mph /  14.5 km/h 57 % 0.00 in /  0 mm
12:01 34.0 °F /  1.1 °C 20.3 °F /  -6.5 °C 29.79 in /  1008.7 hPa WSW 4.3 mph /  6.9 km/h 11.5 mph /  18.5 km/h 57 % 0.00 in /  0 mm
12:06 34.0 °F /  1.1 °C 20.3 °F /  -6.5 °C 29.78 in /  1008.4 hPa WNW 4.5 mph /  7.2 km/h 7.0 mph /  11.3 km/h 57 % 0.00 in /  0 mm
12:11 34.0 °F /  1.1 °C 20.3 °F /  -6.5 °C 29.77 in /  1008 hPa West 0.9 mph /  1.4 km/h 3.5 mph /  5.6 km/h 57 % 0.00 in /  0 mm
12:16 34.1 °F /  1.2 °C 20.4 °F /  -6.4 °C 29.77 in /  1008 hPa WSW 5.2 mph /  8.4 km/h 11.5 mph /  18.5 km/h 57 % 0.00 in /  0 mm
12:21 34.2 °F /  1.2 °C 20.9 °F /  -6.2 °C 29.77 in /  1008 hPa WNW 2.0 mph /  3.2 km/h 3.5 mph /  5.6 km/h 58 % 0.00 in /  0 mm
12:26 34.4 °F /  1.3 °C 21.1 °F /  -6.1 °C 29.77 in /  1008 hPa West 3.3 mph /  5.3 km/h 5.0 mph /  8 km/h 58 % 0.00 in /  0 mm
12:31 34.6 °F /  1.4 °C 20.9 °F /  -6.2 °C 29.77 in /  1008 hPa West 3.5 mph /  5.6 km/h 8.1 mph /  13 km/h 57 % 0.00 in /  0 mm
12:36 34.7 °F /  1.5 °C 21.0 °F /  -6.1 °C 29.76 in /  1007.7 hPa WNW 2.6 mph /  4.2 km/h 4.6 mph /  7.4 km/h 57 % 0.00 in /  0 mm
12:41 34.8 °F /  1.6 °C 21.5 °F /  -5.8 °C 29.76 in /  1007.7 hPa WSW 5.2 mph /  8.4 km/h 9.2 mph /  14.8 km/h 58 % 0.00 in /  0 mm
12:46 34.9 °F /  1.6 °C 21.2 °F /  -6 °C 29.76 in /  1007.7 hPa WSW 5.0 mph /  8 km/h 8.0 mph /  12.9 km/h 57 % 0.00 in /  0 mm
12:51 35.0 °F /  1.7 °C 21.3 °F /  -5.9 °C 29.75 in /  1007.3 hPa WSW 6.3 mph /  10.1 km/h 9.2 mph /  14.8 km/h 57 % 0.00 in /  0 mm
12:56 35.1 °F /  1.7 °C 21.4 °F /  -5.9 °C 29.76 in /  1007.7 hPa West 4.7 mph /  7.6 km/h 8.1 mph /  13 km/h 57 % 0.00 in /  0 mm
13:01 35.2 °F /  1.8 °C 21.1 °F /  -6.1 °C 29.75 in /  1007.3 hPa SW 6.6 mph /  10.6 km/h 10.4 mph /  16.7 km/h 56 % 0.00 in /  0 mm
13:06 35.3 °F /  1.8 °C 21.6 °F /  -5.8 °C 29.75 in /  1007.3 hPa WSW 4.8 mph /  7.7 km/h 8.0 mph /  12.9 km/h 57 % 0.00 in /  0 mm
13:11 35.5 °F /  1.9 °C 21.3 °F /  -5.9 °C 29.75 in /  1007.3 hPa WSW 2.2 mph /  3.5 km/h 5.8 mph /  9.3 km/h 56 % 0.00 in /  0 mm
13:16 35.8 °F /  2.1 °C 21.6 °F /  -5.8 °C 29.75 in /  1007.3 hPa WSW 5.3 mph /  8.5 km/h 8.1 mph /  13 km/h 56 % 0.00 in /  0 mm
13:21 36.0 °F /  2.2 °C 21.8 °F /  -5.7 °C 29.74 in /  1007 hPa SSW 5.5 mph /  8.9 km/h 11.0 mph /  17.7 km/h 56 % 0.00 in /  0 mm
13:27 36.2 °F /  2.3 °C 21.6 °F /  -5.8 °C 29.75 in /  1007.3 hPa West 2.7 mph /  4.3 km/h 6.0 mph /  9.7 km/h 55 % 0.00 in /  0 mm
13:32 36.2 °F /  2.3 °C 21.6 °F /  -5.8 °C 29.75 in /  1007.3 hPa WNW 7.9 mph /  12.7 km/h 13.8 mph /  22.2 km/h 55 % 0.00 in /  0 mm
13:37 36.2 °F /  2.3 °C 21.1 °F /  -6.1 °C 29.75 in /  1007.3 hPa WNW 6.4 mph /  10.3 km/h 10.4 mph /  16.7 km/h 54 % 0.00 in /  0 mm
13:42 36.1 °F /  2.3 °C 21.5 °F /  -5.8 °C 29.74 in /  1007 hPa West 0.8 mph /  1.3 km/h 3.5 mph /  5.6 km/h 55 % 0.00 in /  0 mm
13:47 36.1 °F /  2.3 °C 21.5 °F /  -5.8 °C 29.74 in /  1007 hPa West 5.6 mph /  9 km/h 11.5 mph /  18.5 km/h 55 % 0.00 in /  0 mm
13:52 36.0 °F /  2.2 °C 21.4 °F /  -5.9 °C 29.74 in /  1007 hPa SSW 4.1 mph /  6.6 km/h 8.1 mph /  13 km/h 55 % 0.00 in /  0 mm
13:57 35.8 °F /  2.1 °C 21.2 °F /  -6 °C 29.74 in /  1007 hPa West 6.6 mph /  10.6 km/h 11.5 mph /  18.5 km/h 55 % 0.00 in /  0 mm
14:02 35.7 °F /  2.1 °C 21.5 °F /  -5.8 °C 29.74 in /  1007 hPa WSW 5.7 mph /  9.2 km/h 11.5 mph /  18.5 km/h 56 % 0.00 in /  0 mm
14:07 35.6 °F /  2 °C 21.4 °F /  -5.9 °C 29.74 in /  1007 hPa WSW 6.0 mph /  9.7 km/h 8.1 mph /  13 km/h 56 % 0.00 in /  0 mm
14:12 35.6 °F /  2 °C 21.4 °F /  -5.9 °C 29.74 in /  1007 hPa SW 4.9 mph /  7.9 km/h 8.1 mph /  13 km/h 56 % 0.00 in /  0 mm
14:17 35.7 °F /  2.1 °C 21.5 °F /  -5.8 °C 29.74 in /  1007 hPa West 5.5 mph /  8.9 km/h 8.1 mph /  13 km/h 56 % 0.00 in /  0 mm
14:22 35.7 °F /  2.1 °C 21.5 °F /  -5.8 °C 29.74 in /  1007 hPa WSW 7.8 mph /  12.6 km/h 11.5 mph /  18.5 km/h 56 % 0.00 in /  0 mm
14:27 35.7 °F /  2.1 °C 21.5 °F /  -5.8 °C 29.74 in /  1007 hPa WSW 5.8 mph /  9.3 km/h 9.2 mph /  14.8 km/h 56 % 0.00 in /  0 mm
14:32 35.7 °F /  2.1 °C 21.5 °F /  -5.8 °C 29.74 in /  1007 hPa SSW 5.0 mph /  8 km/h 8.1 mph /  13 km/h 56 % 0.00 in /  0 mm
14:37 35.6 °F /  2 °C 21.4 °F /  -5.9 °C 29.74 in /  1007 hPa WSW 5.7 mph /  9.2 km/h 10.4 mph /  16.7 km/h 56 % 0.00 in /  0 mm
14:42 35.6 °F /  2 °C 21.4 °F /  -5.9 °C 29.73 in /  1006.7 hPa SW 3.6 mph /  5.8 km/h 8.0 mph /  12.9 km/h 56 % 0.00 in /  0 mm
14:47 35.6 °F /  2 °C 21.4 °F /  -5.9 °C 29.74 in /  1007 hPa WSW 2.0 mph /  3.2 km/h 6.0 mph /  9.7 km/h 56 % 0.00 in /  0 mm
14:52 35.6 °F /  2 °C 21.4 °F /  -5.9 °C 29.74 in /  1007 hPa SW 3.7 mph /  6 km/h 11.5 mph /  18.5 km/h 56 % 0.00 in /  0 mm
14:57 35.6 °F /  2 °C 21.9 °F /  -5.6 °C 29.74 in /  1007 hPa SSW 2.8 mph /  4.5 km/h 6.0 mph /  9.7 km/h 57 % 0.00 in /  0 mm
15:02 35.6 °F /  2 °C 21.9 °F /  -5.6 °C 29.74 in /  1007 hPa WSW 4.7 mph /  7.6 km/h 10.4 mph /  16.7 km/h 57 % 0.00 in /  0 mm
15:07 35.7 °F /  2.1 °C 21.5 °F /  -5.8 °C 29.74 in /  1007 hPa SW 2.5 mph /  4 km/h 4.6 mph /  7.4 km/h 56 % 0.00 in /  0 mm
15:12 35.8 °F /  2.1 °C 21.6 °F /  -5.8 °C 29.74 in /  1007 hPa SW 4.4 mph /  7.1 km/h 8.1 mph /  13 km/h 56 % 0.00 in /  0 mm
15:18 35.8 °F /  2.1 °C 21.6 °F /  -5.8 °C 29.74 in /  1007 hPa West 3.8 mph /  6.1 km/h 8.1 mph /  13 km/h 56 % 0.00 in /  0 mm
15:23 35.8 °F /  2.1 °C 22.0 °F /  -5.6 °C 29.74 in /  1007 hPa WSW 3.3 mph /  5.3 km/h 8.1 mph /  13 km/h 57 % 0.00 in /  0 mm
15:28 35.8 °F /  2.1 °C 22.0 °F /  -5.6 °C 29.74 in /  1007 hPa WSW 2.8 mph /  4.5 km/h 4.6 mph /  7.4 km/h 57 % 0.00 in /  0 mm
15:33 35.8 °F /  2.1 °C 22.0 °F /  -5.6 °C 29.75 in /  1007.3 hPa SW 1.5 mph /  2.4 km/h 4.6 mph /  7.4 km/h 57 % 0.00 in /  0 mm
15:38 35.8 °F /  2.1 °C 22.5 °F /  -5.3 °C 29.75 in /  1007.3 hPa WSW 2.5 mph /  4 km/h 4.6 mph /  7.4 km/h 58 % 0.00 in /  0 mm
15:43 35.8 °F /  2.1 °C 22.0 °F /  -5.6 °C 29.75 in /  1007.3 hPa WSW 4.1 mph /  6.6 km/h 5.8 mph /  9.3 km/h 57 % 0.00 in /  0 mm
15:48 35.8 °F /  2.1 °C 22.0 °F /  -5.6 °C 29.75 in /  1007.3 hPa WSW 2.3 mph /  3.7 km/h 6.0 mph /  9.7 km/h 57 % 0.00 in /  0 mm
15:53 35.7 °F /  2.1 °C 21.9 °F /  -5.6 °C 29.75 in /  1007.3 hPa WSW 1.6 mph /  2.6 km/h 3.5 mph /  5.6 km/h 57 % 0.00 in /  0 mm
15:58 35.6 °F /  2 °C 21.9 °F /  -5.6 °C 29.74 in /  1007 hPa WSW 4.1 mph /  6.6 km/h 5.8 mph /  9.3 km/h 57 % 0.00 in /  0 mm
16:03 35.5 °F /  1.9 °C 21.8 °F /  -5.7 °C 29.74 in /  1007 hPa SW 2.6 mph /  4.2 km/h 4.6 mph /  7.4 km/h 57 % 0.00 in /  0 mm
16:08 35.5 °F /  1.9 °C 22.2 °F /  -5.4 °C 29.74 in /  1007 hPa WSW 1.6 mph /  2.6 km/h 3.5 mph /  5.6 km/h 58 % 0.00 in /  0 mm
16:13 35.4 °F /  1.9 °C 22.5 °F /  -5.3 °C 29.74 in /  1007 hPa Calm   2.3 mph /  3.7 km/h 59 % 0.00 in /  0 mm
16:18 35.4 °F /  1.9 °C 22.5 °F /  -5.3 °C 29.74 in /  1007 hPa WSW 1.8 mph /  2.9 km/h 3.5 mph /  5.6 km/h 59 % 0.00 in /  0 mm
16:23 35.3 °F /  1.8 °C 22.4 °F /  -5.3 °C 29.74 in /  1007 hPa West 1.3 mph /  2.1 km/h 5.8 mph /  9.3 km/h 59 % 0.00 in /  0 mm
16:28 35.3 °F /  1.8 °C 22.0 °F /  -5.6 °C 29.75 in /  1007.3 hPa West 3.3 mph /  5.3 km/h 4.6 mph /  7.4 km/h 58 % 0.00 in /  0 mm
16:33 35.2 °F /  1.8 °C 21.9 °F /  -5.6 °C 29.75 in /  1007.3 hPa West 2.0 mph /  3.2 km/h 3.5 mph /  5.6 km/h 58 % 0.00 in /  0 mm
16:38 35.2 °F /  1.8 °C 21.9 °F /  -5.6 °C 29.75 in /  1007.3 hPa WSW 0.8 mph /  1.3 km/h 2.3 mph /  3.7 km/h 58 % 0.00 in /  0 mm
16:43 35.1 °F /  1.7 °C 21.8 °F /  -5.7 °C 29.75 in /  1007.3 hPa SW 1.2 mph /  1.9 km/h 2.3 mph /  3.7 km/h 58 % 0.00 in /  0 mm
16:48 35.0 °F /  1.7 °C 21.7 °F /  -5.7 °C 29.75 in /  1007.3 hPa Calm   1.0 mph /  1.6 km/h 58 % 0.00 in /  0 mm
16:53 34.9 °F /  1.6 °C 22.0 °F /  -5.6 °C 29.75 in /  1007.3 hPa Calm   1.2 mph /  1.9 km/h 59 % 0.00 in /  0 mm
16:58 34.8 °F /  1.6 °C 21.9 °F /  -5.6 °C 29.75 in /  1007.3 hPa Calm     59 % 0.00 in /  0 mm
17:04 34.6 °F /  1.4 °C 21.7 °F /  -5.7 °C 29.75 in /  1007.3 hPa Calm     59 % 0.00 in /  0 mm
17:09 34.4 °F /  1.3 °C 21.5 °F /  -5.8 °C 29.75 in /  1007.3 hPa Calm     59 % 0.00 in /  0 mm
17:14 34.2 °F /  1.2 °C 21.7 °F /  -5.7 °C 29.75 in /  1007.3 hPa Calm     60 % 0.00 in /  0 mm
17:19 34.0 °F /  1.1 °C 21.6 °F /  -5.8 °C 29.75 in /  1007.3 hPa Calm     60 % 0.00 in /  0 mm
17:24 33.7 °F /  0.9 °C 21.7 °F /  -5.7 °C 29.75 in /  1007.3 hPa Calm     61 % 0.00 in /  0 mm
17:29 33.4 °F /  0.8 °C 21.8 °F /  -5.7 °C 29.75 in /  1007.3 hPa WSW 0.1 mph /  0.2 km/h 1.2 mph /  1.9 km/h 62 % 0.00 in /  0 mm
17:34 33.2 °F /  0.7 °C 21.6 °F /  -5.8 °C 29.75 in /  1007.3 hPa Calm     62 % 0.00 in /  0 mm
17:39 33.0 °F /  0.6 °C 21.4 °F /  -5.9 °C 29.75 in /  1007.3 hPa Calm     62 % 0.00 in /  0 mm
17:44 32.7 °F /  0.4 °C 21.5 °F /  -5.8 °C 29.75 in /  1007.3 hPa Calm     63 % 0.00 in /  0 mm
17:49 32.5 °F /  0.3 °C 21.7 °F /  -5.7 °C 29.74 in /  1007 hPa Calm     64 % 0.00 in /  0 mm
17:54 32.2 °F /  0.1 °C 21.7 °F /  -5.7 °C 29.75 in /  1007.3 hPa Calm     65 % 0.00 in /  0 mm
17:59 32.0 °F /  0 °C 21.9 °F /  -5.6 °C 29.74 in /  1007 hPa Calm     66 % 0.00 in /  0 mm
18:04 31.8 °F /  -0.1 °C 21.7 °F /  -5.7 °C 29.74 in /  1007 hPa Calm     66 % 0.00 in /  0 mm
18:09 31.6 °F /  -0.2 °C 21.9 °F /  -5.6 °C 29.74 in /  1007 hPa Calm     67 % 0.00 in /  0 mm
18:14 31.5 °F /  -0.3 °C 21.8 °F /  -5.7 °C 29.75 in /  1007.3 hPa Calm     67 % 0.00 in /  0 mm
18:19 31.4 °F /  -0.3 °C 22.1 °F /  -5.5 °C 29.75 in /  1007.3 hPa Calm     68 % 0.00 in /  0 mm
18:24 31.2 °F /  -0.4 °C 21.9 °F /  -5.6 °C 29.75 in /  1007.3 hPa Calm     68 % 0.00 in /  0 mm
18:29 31.1 °F /  -0.5 °C 21.4 °F /  -5.9 °C 29.75 in /  1007.3 hPa Calm     67 % 0.00 in /  0 mm
18:35 31.0 °F /  -0.6 °C 21.7 °F /  -5.7 °C 29.74 in /  1007 hPa Calm   1.2 mph /  1.9 km/h 68 % 0.00 in /  0 mm
18:40 31.0 °F /  -0.6 °C 21.7 °F /  -5.7 °C 29.74 in /  1007 hPa Calm   1.2 mph /  1.9 km/h 68 % 0.00 in /  0 mm
18:45 30.9 °F /  -0.6 °C 21.6 °F /  -5.8 °C 29.74 in /  1007 hPa Calm   1.2 mph /  1.9 km/h 68 % 0.00 in /  0 mm
18:50 30.8 °F /  -0.7 °C 21.5 °F /  -5.8 °C 29.74 in /  1007 hPa Calm   1.2 mph /  1.9 km/h 68 % 0.00 in /  0 mm
18:55 30.8 °F /  -0.7 °C 21.5 °F /  -5.8 °C 29.74 in /  1007 hPa Calm     68 % 0.00 in /  0 mm
19:00 30.7 °F /  -0.7 °C 21.7 °F /  -5.7 °C 29.75 in /  1007.3 hPa Calm     69 % 0.00 in /  0 mm
19:05 30.7 °F /  -0.7 °C 21.7 °F /  -5.7 °C 29.75 in /  1007.3 hPa Calm     69 % 0.00 in /  0 mm
19:10 30.6 °F /  -0.8 °C 21.6 °F /  -5.8 °C 29.75 in /  1007.3 hPa Calm   1.2 mph /  1.9 km/h 69 % 0.00 in /  0 mm
19:15 30.5 °F /  -0.8 °C 21.5 °F /  -5.8 °C 29.75 in /  1007.3 hPa Calm     69 % 0.00 in /  0 mm
19:20 30.4 °F /  -0.9 °C 21.4 °F /  -5.9 °C 29.75 in /  1007.3 hPa Calm     69 % 0.00 in /  0 mm
19:25 30.3 °F /  -0.9 °C 21.7 °F /  -5.7 °C 29.75 in /  1007.3 hPa Calm     70 % 0.00 in /  0 mm
19:30 30.2 °F /  -1 °C 21.6 °F /  -5.8 °C 29.75 in /  1007.3 hPa Calm     70 % 0.00 in /  0 mm
19:35 30.1 °F /  -1.1 °C 21.5 °F /  -5.8 °C 29.75 in /  1007.3 hPa Calm     70 % 0.00 in /  0 mm
19:40 30.0 °F /  -1.1 °C 21.4 °F /  -5.9 °C 29.74 in /  1007 hPa Calm     70 % 0.00 in /  0 mm
19:45 29.9 °F /  -1.2 °C 21.6 °F /  -5.8 °C 29.75 in /  1007.3 hPa WSW 0.1 mph /  0.2 km/h 2.3 mph /  3.7 km/h 71 % 0.00 in /  0 mm
19:50 29.8 °F /  -1.2 °C 21.5 °F /  -5.8 °C 29.75 in /  1007.3 hPa Calm     71 % 0.00 in /  0 mm
19:55 29.7 °F /  -1.3 °C 21.4 °F /  -5.9 °C 29.75 in /  1007.3 hPa Calm     71 % 0.00 in /  0 mm
20:00 29.6 °F /  -1.3 °C 21.3 °F /  -5.9 °C 29.75 in /  1007.3 hPa Calm     71 % 0.00 in /  0 mm
20:06 29.5 °F /  -1.4 °C 21.6 °F /  -5.8 °C 29.75 in /  1007.3 hPa Calm   1.0 mph /  1.6 km/h 72 % 0.00 in /  0 mm
20:11 29.4 °F /  -1.4 °C 21.5 °F /  -5.8 °C 29.75 in /  1007.3 hPa Calm   1.0 mph /  1.6 km/h 72 % 0.00 in /  0 mm
20:16 29.2 °F /  -1.6 °C 21.7 °F /  -5.7 °C 29.75 in /  1007.3 hPa Calm   2.0 mph /  3.2 km/h 73 % 0.00 in /  0 mm
20:21 29.1 °F /  -1.6 °C 21.5 °F /  -5.8 °C 29.75 in /  1007.3 hPa SW 0.8 mph /  1.3 km/h 3.5 mph /  5.6 km/h 73 % 0.00 in /  0 mm
20:26 29.0 °F /  -1.7 °C 21.7 °F /  -5.7 °C 29.75 in /  1007.3 hPa Calm   4.0 mph /  6.4 km/h 74 % 0.00 in /  0 mm
20:31 29.0 °F /  -1.7 °C 21.7 °F /  -5.7 °C 29.74 in /  1007 hPa SW 1.0 mph /  1.6 km/h 4.0 mph /  6.4 km/h 74 % 0.00 in /  0 mm
20:36 28.9 °F /  -1.7 °C 22.0 °F /  -5.6 °C 29.75 in /  1007.3 hPa SW 1.2 mph /  1.9 km/h 2.3 mph /  3.7 km/h 75 % 0.00 in /  0 mm
20:41 28.9 °F /  -1.7 °C 22.0 °F /  -5.6 °C 29.74 in /  1007 hPa SW 2.0 mph /  3.2 km/h 5.0 mph /  8 km/h 75 % 0.00 in /  0 mm
20:46 28.9 °F /  -1.7 °C 22.0 °F /  -5.6 °C 29.74 in /  1007 hPa SW 1.0 mph /  1.6 km/h 3.0 mph /  4.8 km/h 75 % 0.00 in /  0 mm
20:51 29.1 °F /  -1.6 °C 22.1 °F /  -5.5 °C 29.74 in /  1007 hPa SW 1.0 mph /  1.6 km/h 3.0 mph /  4.8 km/h 75 % 0.00 in /  0 mm
20:56 29.2 °F /  -1.6 °C 22.3 °F /  -5.4 °C 29.75 in /  1007.3 hPa SW 2.0 mph /  3.2 km/h 4.0 mph /  6.4 km/h 75 % 0.00 in /  0 mm
21:01 29.4 °F /  -1.4 °C 22.1 °F /  -5.5 °C 29.74 in /  1007 hPa WSW 2.5 mph /  4 km/h 4.0 mph /  6.4 km/h 74 % 0.00 in /  0 mm
21:06 29.6 °F /  -1.3 °C 22.3 °F /  -5.4 °C 29.75 in /  1007.3 hPa WSW 0.8 mph /  1.3 km/h 3.5 mph /  5.6 km/h 74 % 0.00 in /  0 mm
21:11 29.8 °F /  -1.2 °C 22.5 °F /  -5.3 °C 29.75 in /  1007.3 hPa SW 1.1 mph /  1.8 km/h 3.5 mph /  5.6 km/h 74 % 0.00 in /  0 mm
21:16 30.0 °F /  -1.1 °C 22.7 °F /  -5.2 °C 29.74 in /  1007 hPa Calm     74 % 0.00 in /  0 mm
21:21 30.2 °F /  -1 °C 22.6 °F /  -5.2 °C 29.75 in /  1007.3 hPa SW 0.1 mph /  0.2 km/h 2.3 mph /  3.7 km/h 73 % 0.00 in /  0 mm
21:26 30.3 °F /  -0.9 °C 22.7 °F /  -5.2 °C 29.74 in /  1007 hPa Calm     73 % 0.00 in /  0 mm
21:31 30.4 °F /  -0.9 °C 22.8 °F /  -5.1 °C 29.74 in /  1007 hPa Calm     73 % 0.00 in /  0 mm
21:36 30.5 °F /  -0.8 °C 22.9 °F /  -5.1 °C 29.74 in /  1007 hPa SW 0.3 mph /  0.5 km/h 2.3 mph /  3.7 km/h 73 % 0.00 in /  0 mm
21:41 30.5 °F /  -0.8 °C 22.9 °F /  -5.1 °C 29.74 in /  1007 hPa SW 0.8 mph /  1.3 km/h 2.3 mph /  3.7 km/h 73 % 0.00 in /  0 mm
21:46 30.5 °F /  -0.8 °C 22.9 °F /  -5.1 °C 29.74 in /  1007 hPa SW 1.2 mph /  1.9 km/h 3.5 mph /  5.6 km/h 73 % 0.00 in /  0 mm
21:51 30.5 °F /  -0.8 °C 22.9 °F /  -5.1 °C 29.73 in /  1006.7 hPa SW 1.5 mph /  2.4 km/h 3.5 mph /  5.6 km/h 73 % 0.00 in /  0 mm
21:56 30.5 °F /  -0.8 °C 22.9 °F /  -5.1 °C 29.73 in /  1006.7 hPa SW 0.9 mph /  1.4 km/h 2.3 mph /  3.7 km/h 73 % 0.00 in /  0 mm
22:01 30.4 °F /  -0.9 °C 22.4 °F /  -5.3 °C 29.73 in /  1006.7 hPa Calm   2.3 mph /  3.7 km/h 72 % 0.00 in /  0 mm
22:06 30.4 °F /  -0.9 °C 22.8 °F /  -5.1 °C 29.73 in /  1006.7 hPa Calm     73 % 0.00 in /  0 mm
22:11 30.4 °F /  -0.9 °C 22.8 °F /  -5.1 °C 29.73 in /  1006.7 hPa Calm     73 % 0.00 in /  0 mm
22:17 30.3 °F /  -0.9 °C 22.7 °F /  -5.2 °C 29.73 in /  1006.7 hPa Calm   2.3 mph /  3.7 km/h 73 % 0.00 in /  0 mm
22:22 30.3 °F /  -0.9 °C 22.7 °F /  -5.2 °C 29.72 in /  1006.3 hPa SW 0.2 mph /  0.3 km/h 1.2 mph /  1.9 km/h 73 % 0.00 in /  0 mm
22:27 30.3 °F /  -0.9 °C 22.7 °F /  -5.2 °C 29.72 in /  1006.3 hPa SW 0.3 mph /  0.5 km/h 2.3 mph /  3.7 km/h 73 % 0.00 in /  0 mm
22:32 30.3 °F /  -0.9 °C 22.7 °F /  -5.2 °C 29.72 in /  1006.3 hPa SW 0.6 mph /  1 km/h 2.3 mph /  3.7 km/h 73 % 0.00 in /  0 mm
22:37 30.3 °F /  -0.9 °C 22.7 °F /  -5.2 °C 29.71 in /  1006 hPa SW 1.1 mph /  1.8 km/h 3.5 mph /  5.6 km/h 73 % 0.00 in /  0 mm
22:42 30.3 °F /  -0.9 °C 22.7 °F /  -5.2 °C 29.71 in /  1006 hPa SW 1.1 mph /  1.8 km/h 3.5 mph /  5.6 km/h 73 % 0.00 in /  0 mm
22:47 30.3 °F /  -0.9 °C 23.0 °F /  -5 °C 29.72 in /  1006.3 hPa SW 2.2 mph /  3.5 km/h 3.5 mph /  5.6 km/h 74 % 0.00 in /  0 mm
22:52 30.3 °F /  -0.9 °C 23.0 °F /  -5 °C 29.71 in /  1006 hPa SSW 2.8 mph /  4.5 km/h 3.5 mph /  5.6 km/h 74 % 0.00 in /  0 mm
22:57 30.3 °F /  -0.9 °C 23.0 °F /  -5 °C 29.71 in /  1006 hPa SSW 1.3 mph /  2.1 km/h 4.0 mph /  6.4 km/h 74 % 0.00 in /  0 mm
23:02 30.4 °F /  -0.9 °C 23.1 °F /  -4.9 °C 29.71 in /  1006 hPa SSW 1.8 mph /  2.9 km/h 3.5 mph /  5.6 km/h 74 % 0.00 in /  0 mm
23:07 30.5 °F /  -0.8 °C 23.2 °F /  -4.9 °C 29.71 in /  1006 hPa SSW 1.7 mph /  2.7 km/h 3.5 mph /  5.6 km/h 74 % 0.00 in /  0 mm
23:12 30.6 °F /  -0.8 °C 23.3 °F /  -4.8 °C 29.71 in /  1006 hPa SSW 2.4 mph /  3.9 km/h 4.0 mph /  6.4 km/h 74 % 0.00 in /  0 mm
23:17 30.7 °F /  -0.7 °C 23.4 °F /  -4.8 °C 29.71 in /  1006 hPa SSW 2.1 mph /  3.4 km/h 3.5 mph /  5.6 km/h 74 % 0.00 in /  0 mm
23:22 30.8 °F /  -0.7 °C 23.5 °F /  -4.7 °C 29.70 in /  1005.6 hPa SSW 1.8 mph /  2.9 km/h 3.5 mph /  5.6 km/h 74 % 0.00 in /  0 mm
23:27 31.0 °F /  -0.6 °C 23.7 °F /  -4.6 °C 29.70 in /  1005.6 hPa SSW 2.4 mph /  3.9 km/h 3.5 mph /  5.6 km/h 74 % 0.00 in /  0 mm
23:32 31.1 °F /  -0.5 °C 23.8 °F /  -4.6 °C 29.70 in /  1005.6 hPa SSW 1.4 mph /  2.3 km/h 3.5 mph /  5.6 km/h 74 % 0.00 in /  0 mm
23:37 31.2 °F /  -0.4 °C 23.5 °F /  -4.7 °C 29.70 in /  1005.6 hPa SSW 1.2 mph /  1.9 km/h 3.5 mph /  5.6 km/h 73 % 0.00 in /  0 mm
23:42 31.3 °F /  -0.4 °C 23.6 °F /  -4.7 °C 29.70 in /  1005.6 hPa SSW 3.5 mph /  5.6 km/h 5.8 mph /  9.3 km/h 73 % 0.00 in /  0 mm
23:47 31.4 °F /  -0.3 °C 23.7 °F /  -4.6 °C 29.69 in /  1005.3 hPa SSW 1.4 mph /  2.3 km/h 3.5 mph /  5.6 km/h 73 % 0.00 in /  0 mm
23:52 31.4 °F /  -0.3 °C 23.7 °F /  -4.6 °C 29.69 in /  1005.3 hPa SSW 1.7 mph /  2.7 km/h 2.3 mph /  3.7 km/h 73 % 0.00 in /  0 mm
23:58 31.5 °F /  -0.3 °C 23.8 °F /  -4.6 °C 29.69 in /  1005.3 hPa SW 1.0 mph /  1.6 km/h 3.5 mph /  5.6 km/h 73 % 0.00 in /  0 mm
Crab Meadow Weather
Compliments of Weather Underground - 3 mb

Script developed by  Jim McMurry - jmcmurry@mwt.net Adapted for the template by  Wim van der Kuil - Leuven-Template.eu

Recycling: Americans threw away 38 billion plastic water bottles in 2006. A million and a half barrels of oil - enough to fuel 100,000 cars for a year - were used to produce the bottles.